createdAt,value
2018-06-08T00:00:08.269Z,97669.51
2018-06-08T00:00:39.865Z,97671.39
2018-06-08T00:01:11.453Z,97665.65
2018-06-08T00:01:43.074Z,97660.73
2018-06-08T00:02:14.644Z,97658.88
2018-06-08T00:02:46.245Z,97669.78
2018-06-08T00:03:17.901Z,97662.41
2018-06-08T00:03:49.515Z,97660.59
2018-06-08T00:04:21.107Z,97662.64
2018-06-08T00:04:52.672Z,97660.83
2018-06-08T00:05:24.263Z,97654.77
2018-06-08T00:05:55.856Z,97660.67
2018-06-08T00:06:27.437Z,97661.02
2018-06-08T00:06:59.021Z,97657.09
2018-06-08T00:07:30.595Z,97664.73
2018-06-08T00:08:02.178Z,97656.58
2018-06-08T00:08:33.812Z,97656.55
2018-06-08T00:09:05.393Z,97658.20
2018-06-08T00:09:36.997Z,97657.73
2018-06-08T00:10:08.576Z,97657.24
2018-06-08T00:10:40.186Z,97658.10
2018-06-08T00:11:11.760Z,97657.23
2018-06-08T00:11:43.372Z,97661.44
2018-06-08T00:12:14.947Z,97661.42
2018-06-08T00:12:46.522Z,97660.98
2018-06-08T00:13:18.129Z,97649.47
2018-06-08T00:13:49.727Z,97656.27
2018-06-08T00:14:21.332Z,97656.22
2018-06-08T00:14:52.945Z,97660.50
2018-06-08T00:15:24.528Z,97653.31
2018-06-08T00:15:56.138Z,97655.78
2018-06-08T00:16:27.773Z,97654.92
2018-06-08T00:16:59.373Z,97656.61
2018-06-08T00:17:30.982Z,97657.47
2018-06-08T00:18:02.570Z,97661.26
2018-06-08T00:18:34.213Z,97655.75
2018-06-08T00:19:05.821Z,97656.14
2018-06-08T00:19:37.405Z,97659.13
2018-06-08T00:20:08.990Z,97655.70
2018-06-08T00:20:40.563Z,97660.80
2018-06-08T00:21:12.160Z,97662.50
2018-06-08T00:21:43.745Z,97648.00
2018-06-08T00:22:15.333Z,97656.11
2018-06-08T00:22:46.958Z,97652.69
2018-06-08T00:23:18.555Z,97653.11
2018-06-08T00:23:50.144Z,97653.11
2018-06-08T00:24:21.725Z,97649.69
2018-06-08T00:24:53.325Z,97648.83
2018-06-08T00:25:24.972Z,97648.83
2018-06-08T00:25:56.556Z,97653.48
2018-06-08T00:26:28.158Z,97649.20
2018-06-08T00:26:59.755Z,97647.92
2018-06-08T00:27:31.363Z,97647.49
2018-06-08T00:28:03.006Z,97650.05
2018-06-08T00:28:34.609Z,97649.62
2018-06-08T00:29:06.226Z,97647.47
2018-06-08T00:29:37.821Z,97649.61
2018-06-08T00:30:09.400Z,97646.20
2018-06-08T00:30:41.001Z,97653.41
2018-06-08T00:31:12.578Z,97651.27
2018-06-08T00:31:44.167Z,97652.13
2018-06-08T00:32:15.777Z,97649.56
2018-06-08T00:32:47.361Z,97643.67
2018-06-08T00:33:18.984Z,97648.70
2018-06-08T00:33:50.561Z,97645.70
2018-06-08T00:34:22.166Z,97650.81
2018-06-08T00:34:53.740Z,97645.70
2018-06-08T00:35:25.317Z,97654.23
2018-06-08T00:35:56.901Z,97645.70
2018-06-08T00:36:28.469Z,97644.42
2018-06-08T00:37:00.049Z,97650.39
2018-06-08T00:37:31.634Z,97658.92
2018-06-08T00:38:03.204Z,97654.21
2018-06-08T00:38:34.854Z,97654.23
2018-06-08T00:39:06.448Z,97648.23
2018-06-08T00:39:38.021Z,97649.05
2018-06-08T00:40:09.621Z,97649.89
2018-06-08T00:40:41.257Z,97651.59
2018-06-08T00:41:12.841Z,97651.60
2018-06-08T00:41:44.422Z,97653.35
2018-06-08T00:42:16.031Z,97650.32
2018-06-08T00:42:47.633Z,97656.72
2018-06-08T00:43:19.227Z,97652.45
2018-06-08T00:43:50.809Z,97650.73
2018-06-08T00:44:22.404Z,97655.42
2018-06-08T00:44:54.016Z,97655.42
2018-06-08T00:45:25.601Z,97657.53
2018-06-08T00:45:57.200Z,97650.69
2018-06-08T00:46:28.809Z,97653.64
2018-06-08T00:47:00.461Z,97651.08
2018-06-08T00:47:32.056Z,97654.91
2018-06-08T00:48:03.638Z,97650.20
2018-06-08T00:48:35.230Z,97654.91
2018-06-08T00:49:06.813Z,97653.19
2018-06-08T00:49:38.417Z,97650.62
2018-06-08T00:50:10.021Z,97653.61
2018-06-08T00:50:41.619Z,97649.33
2018-06-08T00:51:13.275Z,97647.19
2018-06-08T00:51:44.852Z,97649.77
2018-06-08T00:52:16.420Z,97650.61
2018-06-08T00:52:48.081Z,97646.77
2018-06-08T00:53:19.656Z,97649.75
2018-06-08T00:53:51.336Z,97653.13
2018-06-08T00:54:22.942Z,97645.07
2018-06-08T00:54:54.524Z,97647.63
2018-06-08T00:55:26.105Z,97646.34
2018-06-08T00:55:57.710Z,97643.38
2018-06-08T00:56:29.365Z,97645.07
2018-06-08T00:57:00.974Z,97647.63
2018-06-08T00:57:32.586Z,97645.93
2018-06-08T00:58:04.194Z,97644.21
2018-06-08T00:58:35.774Z,97638.67
2018-06-08T00:59:07.378Z,97639.11
2018-06-08T00:59:38.958Z,97642.93
2018-06-08T01:00:10.542Z,97639.95
2018-06-08T01:00:42.116Z,97639.95
2018-06-08T01:01:13.707Z,97637.39
2018-06-08T01:01:45.317Z,97637.39
2018-06-08T01:02:16.916Z,97642.09
2018-06-08T01:02:48.521Z,97637.81
2018-06-08T01:03:20.217Z,97634.83
2018-06-08T01:03:51.822Z,97636.53
2018-06-08T01:04:23.418Z,97631.84
2018-06-08T01:04:54.999Z,97639.05
2018-06-08T01:05:26.605Z,97637.81
2018-06-08T01:05:58.199Z,97642.07
2018-06-08T01:06:29.861Z,97637.34
2018-06-08T01:07:01.465Z,97638.63
2018-06-08T01:07:33.036Z,97640.75
2018-06-08T01:08:04.613Z,97637.34
2018-06-08T01:08:36.218Z,97633.92
2018-06-08T01:09:07.801Z,97639.47
2018-06-08T01:09:39.401Z,97637.33
2018-06-08T01:10:10.981Z,97640.33
2018-06-08T01:10:42.556Z,97639.05
2018-06-08T01:11:14.128Z,97637.33
2018-06-08T01:11:46.074Z,97635.19
2018-06-08T01:12:17.753Z,97638.50
2018-06-08T01:12:49.337Z,97641.41
2018-06-08T01:13:20.982Z,97637.48
2018-06-08T01:13:52.589Z,97642.59
2018-06-08T01:14:24.192Z,97634.90
2018-06-08T01:14:55.781Z,97634.05
2018-06-08T01:15:27.374Z,97636.16
2018-06-08T01:15:58.960Z,97635.74
2018-06-08T01:16:30.556Z,97636.16
2018-06-08T01:17:02.162Z,97645.05
2018-06-08T01:17:33.776Z,97639.08
2018-06-08T01:18:05.378Z,97639.50
2018-06-08T01:18:37.001Z,97636.48
2018-06-08T01:19:08.601Z,97636.44
2018-06-08T01:19:40.185Z,97633.42
2018-06-08T01:20:11.761Z,97635.07
2018-06-08T01:20:43.360Z,97642.73
2018-06-08T01:21:14.958Z,97640.17
2018-06-08T01:21:47.168Z,97637.63
2018-06-08T01:22:18.798Z,97639.33
2018-06-08T01:22:50.385Z,97638.47
2018-06-08T01:23:21.980Z,97636.33
2018-06-08T01:23:53.555Z,97634.58
2018-06-08T01:24:25.162Z,97634.14
2018-06-08T01:24:56.797Z,97631.16
2018-06-08T01:25:28.477Z,97634.12
2018-06-08T01:26:00.045Z,97629.86
2018-06-08T01:26:31.649Z,97633.70
2018-06-08T01:27:03.254Z,97632.41
2018-06-08T01:27:34.909Z,97634.98
2018-06-08T01:28:06.521Z,97631.13
2018-06-08T01:28:38.109Z,97629.84
2018-06-08T01:29:09.699Z,97633.27
2018-06-08T01:29:41.305Z,97637.10
2018-06-08T01:30:12.909Z,97634.11
2018-06-08T01:30:44.489Z,97625.52
2018-06-08T01:31:16.055Z,97634.52
2018-06-08T01:31:47.661Z,97631.49
2018-06-08T01:32:19.270Z,97627.64
2018-06-08T01:32:50.929Z,97629.34
2018-06-08T01:33:22.514Z,97627.62
2018-06-08T01:33:54.138Z,97630.61
2018-06-08T01:34:25.737Z,97629.75
2018-06-08T01:34:57.342Z,97625.52
2018-06-08T01:35:28.949Z,97630.55
2018-06-08T01:36:00.558Z,97627.55
2018-06-08T01:36:32.154Z,97630.13
2018-06-08T01:37:03.732Z,97630.55
2018-06-08T01:37:35.334Z,97627.56
2018-06-08T01:38:06.940Z,97637.38
2018-06-08T01:38:38.524Z,97628.45
2018-06-08T01:39:10.163Z,97632.25
2018-06-08T01:39:41.825Z,97631.39
2018-06-08T01:40:13.434Z,97634.39
2018-06-08T01:40:45.046Z,97627.55
2018-06-08T01:41:16.653Z,97629.25
2018-06-08T01:41:48.262Z,97631.37
2018-06-08T01:42:19.851Z,97636.94
2018-06-08T01:42:51.449Z,97634.38
2018-06-08T01:43:23.062Z,97632.23
2018-06-08T01:43:54.667Z,97635.22
2018-06-08T01:44:26.316Z,97632.22
2018-06-08T01:44:57.897Z,97636.49
2018-06-08T01:45:29.467Z,97637.34
2018-06-08T01:46:01.055Z,97639.05
2018-06-08T01:46:32.661Z,97636.42
2018-06-08T01:47:04.271Z,97640.73
2018-06-08T01:47:35.861Z,97635.63
2018-06-08T01:48:07.466Z,97637.28
2018-06-08T01:48:39.050Z,97642.03
2018-06-08T01:49:10.664Z,97637.77
2018-06-08T01:49:42.269Z,97638.20
2018-06-08T01:50:13.850Z,97638.62
2018-06-08T01:50:45.434Z,97635.20
2018-06-08T01:51:17.027Z,97639.84
2018-06-08T01:51:48.625Z,97635.55
2018-06-08T01:52:20.229Z,97629.48
2018-06-08T01:52:51.838Z,97635.02
2018-06-08T01:53:23.432Z,97637.56
2018-06-08T01:53:55.058Z,97638.45
2018-06-08T01:54:26.637Z,97639.28
2018-06-08T01:54:58.231Z,97640.13
2018-06-08T01:55:29.837Z,97635.02
2018-06-08T01:56:01.418Z,97635.02
2018-06-08T01:56:33.011Z,97633.30
2018-06-08T01:57:04.588Z,97630.69
2018-06-08T01:57:36.204Z,97635.86
2018-06-08T01:58:07.780Z,97628.20
2018-06-08T01:58:39.357Z,97635.90
2018-06-08T01:59:10.976Z,97638.52
2018-06-08T01:59:42.581Z,97635.48
2018-06-08T02:00:14.179Z,97632.90
2018-06-08T02:00:45.790Z,97631.27
2018-06-08T02:01:17.388Z,97626.08
2018-06-08T02:01:48.996Z,97629.92
2018-06-08T02:02:20.624Z,97629.50
2018-06-08T02:02:52.252Z,97629.97
2018-06-08T02:03:23.853Z,97632.11
2018-06-08T02:03:55.442Z,97632.92
2018-06-08T02:04:27.030Z,97635.09
2018-06-08T02:04:58.613Z,97633.39
2018-06-08T02:05:30.224Z,97629.13
2018-06-08T02:06:01.810Z,97633.81
2018-06-08T02:06:33.424Z,97632.97
2018-06-08T02:07:04.992Z,97629.08
2018-06-08T02:07:36.605Z,97630.36
2018-06-08T02:08:08.176Z,97632.48
2018-06-08T02:08:39.750Z,97636.76
2018-06-08T02:09:11.357Z,97638.02
2018-06-08T02:09:43.001Z,97638.46
2018-06-08T02:10:14.614Z,97635.90
2018-06-08T02:10:46.188Z,97631.64
2018-06-08T02:11:17.789Z,97631.25
2018-06-08T02:11:49.369Z,97632.53
2018-06-08T02:12:20.969Z,97635.95
2018-06-08T02:12:52.563Z,97632.55
2018-06-08T02:13:24.160Z,97635.11
2018-06-08T02:13:55.766Z,97638.95
2018-06-08T02:14:27.371Z,97639.45
2018-06-08T02:14:58.977Z,97630.08
2018-06-08T02:15:30.580Z,97638.13
2018-06-08T02:16:02.170Z,97638.13
2018-06-08T02:16:33.778Z,97639.03
2018-06-08T02:17:05.380Z,97631.80
2018-06-08T02:17:36.964Z,97638.20
2018-06-08T02:18:08.585Z,97639.49
2018-06-08T02:18:40.211Z,97640.84
2018-06-08T02:19:11.794Z,97646.77
2018-06-08T02:19:43.378Z,97641.27
2018-06-08T02:20:14.960Z,97638.73
2018-06-08T02:20:46.570Z,97641.21
2018-06-08T02:21:18.179Z,97639.09
2018-06-08T02:21:49.759Z,97643.82
2018-06-08T02:22:21.361Z,97640.00
2018-06-08T02:22:52.941Z,97637.86
2018-06-08T02:23:24.598Z,97637.86
2018-06-08T02:23:56.208Z,97642.12
2018-06-08T02:24:27.801Z,97645.10
2018-06-08T02:24:59.391Z,97643.82
2018-06-08T02:25:30.997Z,97636.95
2018-06-08T02:26:02.586Z,97637.42
2018-06-08T02:26:34.183Z,97636.09
2018-06-08T02:27:05.766Z,97636.48
2018-06-08T02:27:37.369Z,97640.75
2018-06-08T02:28:08.978Z,97636.49
2018-06-08T02:28:40.609Z,97637.35
2018-06-08T02:29:12.233Z,97639.48
2018-06-08T02:29:43.860Z,97641.11
2018-06-08T02:30:15.494Z,97641.95
2018-06-08T02:30:47.092Z,97634.69
2018-06-08T02:31:18.699Z,97638.98
2018-06-08T02:31:50.291Z,97635.98
2018-06-08T02:32:21.863Z,97637.67
2018-06-08T02:32:53.469Z,97637.67
2018-06-08T02:33:25.055Z,97638.53
2018-06-08T02:33:56.634Z,97637.69
2018-06-08T02:34:28.245Z,97638.52
2018-06-08T02:34:59.830Z,97635.12
2018-06-08T02:35:31.468Z,97632.14
2018-06-08T02:36:03.068Z,97640.23
2018-06-08T02:36:34.673Z,97636.76
2018-06-08T02:37:06.285Z,97640.59
2018-06-08T02:37:37.884Z,97633.30
2018-06-08T02:38:09.470Z,97637.14
2018-06-08T02:38:41.058Z,97638.84
2018-06-08T02:39:12.642Z,97635.81
2018-06-08T02:39:44.229Z,97639.66
2018-06-08T02:40:15.840Z,97635.42
2018-06-08T02:40:47.410Z,97636.63
2018-06-08T02:41:19.018Z,97635.08
2018-06-08T02:41:50.616Z,97631.89
2018-06-08T02:42:22.246Z,97635.08
2018-06-08T02:42:53.830Z,97633.98
2018-06-08T02:43:25.419Z,97631.80
2018-06-08T02:43:57.035Z,97633.39
2018-06-08T02:44:28.614Z,97639.19
2018-06-08T02:45:00.198Z,97637.16
2018-06-08T02:45:31.785Z,97638.80
2018-06-08T02:46:03.386Z,97637.47
2018-06-08T02:46:34.967Z,97636.94
2018-06-08T02:47:06.585Z,97639.69
2018-06-08T02:47:38.169Z,97635.66
2018-06-08T02:48:09.777Z,97644.29
2018-06-08T02:48:41.357Z,97646.13
2018-06-08T02:49:13.049Z,97640.24
2018-06-08T02:49:44.634Z,97641.70
2018-06-08T02:50:16.232Z,97635.95
2018-06-08T02:50:47.845Z,97638.39
2018-06-08T02:51:19.448Z,97642.59
2018-06-08T02:51:51.040Z,97641.48
2018-06-08T02:52:22.693Z,97645.12
2018-06-08T02:52:54.287Z,97643.22
2018-06-08T02:53:25.874Z,97646.81
2018-06-08T02:53:57.462Z,97649.50
2018-06-08T02:54:29.042Z,97646.19
2018-06-08T02:55:00.641Z,97642.42
2018-06-08T02:55:32.222Z,97645.83
2018-06-08T02:56:03.836Z,97646.69
2018-06-08T02:56:35.432Z,97641.95
2018-06-08T02:57:07.054Z,97644.98
2018-06-08T02:57:38.620Z,97649.25
2018-06-08T02:58:10.188Z,97643.80
2018-06-08T02:58:41.780Z,97646.85
2018-06-08T02:59:13.375Z,97646.45
2018-06-08T02:59:44.982Z,97647.36
2018-06-08T03:00:16.598Z,97646.05
2018-06-08T03:00:48.226Z,97645.33
2018-06-08T03:01:19.877Z,97644.22
2018-06-08T03:01:51.621Z,97643.08
2018-06-08T03:02:23.212Z,97636.50
2018-06-08T03:02:55.761Z,97638.31
2018-06-08T03:03:27.444Z,97639.44
2018-06-08T03:03:59.053Z,97643.03
2018-06-08T03:04:30.665Z,97643.28
2018-06-08T03:05:02.260Z,97637.17
2018-06-08T03:05:33.870Z,97643.02
2018-06-08T03:06:05.458Z,97645.48
2018-06-08T03:06:37.023Z,97639.38
2018-06-08T03:07:08.628Z,97638.97
2018-06-08T03:07:40.222Z,97637.14
2018-06-08T03:08:11.872Z,97640.89
2018-06-08T03:08:43.459Z,97648.06
2018-06-08T03:09:15.042Z,97641.23
2018-06-08T03:09:46.632Z,97644.57
2018-06-08T03:10:18.232Z,97638.16
2018-06-08T03:10:49.828Z,97644.11
2018-06-08T03:11:21.424Z,97644.05
2018-06-08T03:11:53.032Z,97636.78
2018-06-08T03:12:24.642Z,97641.05
2018-06-08T03:12:56.229Z,97638.86
2018-06-08T03:13:27.847Z,97647.38
2018-06-08T03:13:59.430Z,97643.96
2018-06-08T03:14:31.005Z,97643.96
2018-06-08T03:15:02.594Z,97639.25
2018-06-08T03:15:34.198Z,97643.95
2018-06-08T03:16:05.768Z,97646.48
2018-06-08T03:16:37.439Z,97641.41
2018-06-08T03:17:09.024Z,97644.81
2018-06-08T03:17:40.606Z,97643.45
2018-06-08T03:18:12.181Z,97643.45
2018-06-08T03:18:43.828Z,97646.44
2018-06-08T03:19:15.410Z,97643.45
2018-06-08T03:19:46.988Z,97645.58
2018-06-08T03:20:18.598Z,97643.44
2018-06-08T03:20:50.182Z,97643.87
2018-06-08T03:21:21.757Z,97646.42
2018-06-08T03:21:53.360Z,97639.17
2018-06-08T03:22:24.945Z,97641.30
2018-06-08T03:22:56.511Z,97646.41
2018-06-08T03:23:28.153Z,97638.31
2018-06-08T03:23:59.757Z,97637.47
2018-06-08T03:24:31.351Z,97633.63
2018-06-08T03:25:02.929Z,97632.35
2018-06-08T03:25:34.510Z,97638.77
2018-06-08T03:26:06.093Z,97636.63
2018-06-08T03:26:37.702Z,97633.23
2018-06-08T03:27:09.326Z,97639.61
2018-06-08T03:27:40.915Z,97640.47
2018-06-08T03:28:12.525Z,97635.34
2018-06-08T03:28:44.104Z,97634.07
2018-06-08T03:29:15.713Z,97634.48
2018-06-08T03:29:47.301Z,97635.33
2018-06-08T03:30:18.909Z,97632.35
2018-06-08T03:30:50.517Z,97636.63
2018-06-08T03:31:22.112Z,97635.34
2018-06-08T03:31:53.734Z,97631.49
2018-06-08T03:32:25.308Z,97631.94
2018-06-08T03:32:56.958Z,97631.08
2018-06-08T03:33:28.561Z,97631.14
2018-06-08T03:34:00.150Z,97632.77
2018-06-08T03:34:31.743Z,97629.38
2018-06-08T03:35:03.343Z,97632.77
2018-06-08T03:35:34.930Z,97633.21
2018-06-08T03:36:06.514Z,97630.66
2018-06-08T03:36:38.104Z,97634.48
2018-06-08T03:37:09.713Z,97636.19
2018-06-08T03:37:41.298Z,97634.48
2018-06-08T03:38:12.921Z,97633.21
2018-06-08T03:38:44.577Z,97634.07
2018-06-08T03:39:16.153Z,97632.44
2018-06-08T03:39:47.749Z,97639.61
2018-06-08T03:40:19.342Z,97637.05
2018-06-08T03:40:50.908Z,97632.79
2018-06-08T03:41:22.489Z,97637.48
2018-06-08T03:41:54.094Z,97634.07
2018-06-08T03:42:25.682Z,97634.92
2018-06-08T03:42:57.255Z,97635.34
2018-06-08T03:43:28.857Z,97634.07
2018-06-08T03:44:00.513Z,97633.64
2018-06-08T03:44:32.083Z,97632.84
2018-06-08T03:45:03.676Z,97636.63
2018-06-08T03:45:35.259Z,97633.64
2018-06-08T03:46:06.832Z,97631.95
2018-06-08T03:46:38.403Z,97634.92
2018-06-08T03:47:09.982Z,97631.14
2018-06-08T03:47:41.551Z,97631.56
2018-06-08T03:48:13.151Z,97629.81
2018-06-08T03:48:44.779Z,97630.67
2018-06-08T03:49:16.385Z,97627.67
2018-06-08T03:49:47.969Z,97623.41
2018-06-08T03:50:19.564Z,97628.95
2018-06-08T03:50:51.162Z,97626.44
2018-06-08T03:51:22.773Z,97629.00
2018-06-08T03:51:54.347Z,97622.61
2018-06-08T03:52:25.946Z,97623.83
2018-06-08T03:52:57.592Z,97624.26
2018-06-08T03:53:29.206Z,97625.97
2018-06-08T03:54:00.793Z,97620.42
2018-06-08T03:54:32.370Z,97619.56
2018-06-08T03:55:04.002Z,97623.81
2018-06-08T03:55:35.591Z,97620.41
2018-06-08T03:56:07.188Z,97622.61
2018-06-08T03:56:38.769Z,97627.59
2018-06-08T03:57:10.345Z,97621.25
2018-06-08T03:57:41.924Z,97623.80
2018-06-08T03:58:13.564Z,97626.78
2018-06-08T03:58:45.150Z,97620.39
2018-06-08T03:59:16.729Z,97628.87
2018-06-08T03:59:48.334Z,97626.73
2018-06-08T04:00:19.909Z,97630.13
2018-06-08T04:00:51.499Z,97624.17
2018-06-08T04:01:23.075Z,97624.59
2018-06-08T04:01:54.656Z,97626.30
2018-06-08T04:02:26.263Z,97631.41
2018-06-08T04:02:57.855Z,97624.58
2018-06-08T04:03:29.421Z,97625.00
2018-06-08T04:04:01.036Z,97625.42
2018-06-08T04:04:33.390Z,97628.42
2018-06-08T04:05:04.975Z,97628.82
2018-06-08T04:05:36.578Z,97628.42
2018-06-08T04:06:08.194Z,97626.27
2018-06-08T04:06:40.276Z,97628.41
2018-06-08T04:07:11.858Z,97629.63
2018-06-08T04:07:43.460Z,97629.20
2018-06-08T04:08:15.097Z,97633.89
2018-06-08T04:08:46.677Z,97628.34
2018-06-08T04:09:18.299Z,97630.12
2018-06-08T04:09:49.877Z,97630.47
2018-06-08T04:10:21.472Z,97626.62
2018-06-08T04:10:53.044Z,97632.59
2018-06-08T04:11:24.612Z,97627.90
2018-06-08T04:11:56.193Z,97626.62
2018-06-08T04:12:27.784Z,97630.44
2018-06-08T04:12:59.361Z,97625.77
2018-06-08T04:13:30.961Z,97630.45
2018-06-08T04:14:02.566Z,97629.58
2018-06-08T04:14:34.155Z,97633.42
2018-06-08T04:15:05.737Z,97628.69
2018-06-08T04:15:37.349Z,97629.53
2018-06-08T04:16:08.948Z,97629.53
2018-06-08T04:16:40.534Z,97627.02
2018-06-08T04:17:12.117Z,97633.80
2018-06-08T04:17:43.719Z,97636.78
2018-06-08T04:18:15.329Z,97634.22
2018-06-08T04:18:46.931Z,97631.30
2018-06-08T04:19:18.593Z,97632.50
2018-06-08T04:19:50.191Z,97637.17
2018-06-08T04:20:21.773Z,97638.45
2018-06-08T04:20:53.363Z,97636.32
2018-06-08T04:21:24.994Z,97639.30
2018-06-08T04:21:56.564Z,97629.06
2018-06-08T04:22:28.165Z,97630.36
2018-06-08T04:22:59.778Z,97631.16
2018-06-08T04:23:31.386Z,97632.44
2018-06-08T04:24:02.989Z,97636.69
2018-06-08T04:24:34.570Z,97628.58
2018-06-08T04:25:06.164Z,97624.31
2018-06-08T04:25:37.747Z,97629.86
2018-06-08T04:26:09.390Z,97635.81
2018-06-08T04:26:40.982Z,97632.40
2018-06-08T04:27:12.589Z,97628.13
2018-06-08T04:27:44.183Z,97625.56
2018-06-08T04:28:15.789Z,97625.14
2018-06-08T04:28:47.396Z,97629.35
2018-06-08T04:29:18.968Z,97628.08
2018-06-08T04:29:50.549Z,97625.94
2018-06-08T04:30:22.144Z,97631.47
2018-06-08T04:30:53.917Z,97622.94
2018-06-08T04:31:25.524Z,97631.45
2018-06-08T04:31:57.133Z,97623.81
2018-06-08T04:32:28.712Z,97632.30
2018-06-08T04:33:00.341Z,97629.76
2018-06-08T04:33:31.926Z,97635.72
2018-06-08T04:34:03.527Z,97632.30
2018-06-08T04:34:35.142Z,97633.95
2018-06-08T04:35:06.741Z,97635.23
2018-06-08T04:35:38.345Z,97634.38
2018-06-08T04:36:09.998Z,97637.77
2018-06-08T04:36:41.582Z,97632.66
2018-06-08T04:37:13.219Z,97635.66
2018-06-08T04:37:44.813Z,97637.34
2018-06-08T04:38:16.420Z,97639.05
2018-06-08T04:38:48.030Z,97637.77
2018-06-08T04:39:19.629Z,97633.09
2018-06-08T04:39:51.214Z,97633.94
2018-06-08T04:40:22.861Z,97636.49
2018-06-08T04:40:54.440Z,97637.34
2018-06-08T04:41:26.041Z,97640.78
2018-06-08T04:41:57.623Z,97635.62
2018-06-08T04:42:29.228Z,97643.30
2018-06-08T04:43:00.796Z,97634.76
2018-06-08T04:43:32.381Z,97634.81
2018-06-08T04:44:03.993Z,97634.76
2018-06-08T04:44:35.568Z,97644.09
2018-06-08T04:45:07.151Z,97635.15
2018-06-08T04:45:38.730Z,97633.01
2018-06-08T04:46:10.310Z,97635.98
2018-06-08T04:46:41.942Z,97641.97
2018-06-08T04:47:13.540Z,97635.13
2018-06-08T04:47:45.149Z,97639.39
2018-06-08T04:48:17.125Z,97637.25
2018-06-08T04:48:48.705Z,97636.39
2018-06-08T04:49:20.307Z,97633.44
2018-06-08T04:49:51.923Z,97635.53
2018-06-08T04:50:23.509Z,97636.81
2018-06-08T04:50:55.136Z,97643.22
2018-06-08T04:51:26.721Z,97636.81
2018-06-08T04:51:58.325Z,97635.95
2018-06-08T04:52:29.964Z,97635.95
2018-06-08T04:53:01.554Z,97633.39
2018-06-08T04:53:33.137Z,97641.45
2018-06-08T04:54:04.717Z,97635.48
2018-06-08T04:54:36.291Z,97632.48
2018-06-08T04:55:07.869Z,97636.38
2018-06-08T04:55:39.477Z,97641.03
2018-06-08T04:56:11.085Z,97633.34
2018-06-08T04:56:42.673Z,97629.07
2018-06-08T04:57:14.295Z,97640.59
2018-06-08T04:57:45.905Z,97640.59
2018-06-08T04:58:17.500Z,97639.73
2018-06-08T04:58:49.101Z,97636.39
2018-06-08T04:59:20.685Z,97624.02
2018-06-08T04:59:52.294Z,97633.75
2018-06-08T05:00:23.926Z,97632.89
2018-06-08T05:00:55.496Z,97630.75
2018-06-08T05:01:27.097Z,97630.34
2018-06-08T05:01:58.667Z,97627.78
2018-06-08T05:02:30.263Z,97629.05
2018-06-08T05:03:01.874Z,97630.34
2018-06-08T05:03:33.458Z,97626.06
2018-06-08T05:04:05.142Z,97630.73
2018-06-08T05:04:36.749Z,97633.30
2018-06-08T05:05:08.354Z,97629.46
2018-06-08T05:05:39.993Z,97629.84
2018-06-08T05:06:11.592Z,97633.30
2018-06-08T05:06:43.178Z,97629.41
2018-06-08T05:07:14.785Z,97633.67
2018-06-08T05:07:46.430Z,97632.83
2018-06-08T05:08:18.037Z,97633.67
2018-06-08T05:08:49.622Z,97638.79
2018-06-08T05:09:21.212Z,97631.53
2018-06-08T05:09:52.784Z,97632.38
2018-06-08T05:10:24.375Z,97636.63
2018-06-08T05:10:56.021Z,97639.61
2018-06-08T05:11:27.606Z,97640.89
2018-06-08T05:11:59.175Z,97633.22
2018-06-08T05:12:30.781Z,97637.91
2018-06-08T05:13:02.435Z,97636.63
2018-06-08T05:13:34.031Z,97646.45
2018-06-08T05:14:05.613Z,97634.94
2018-06-08T05:14:37.221Z,97636.63
2018-06-08T05:15:08.833Z,97634.16
2018-06-08T05:15:40.430Z,97637.91
2018-06-08T05:16:12.109Z,97636.65
2018-06-08T05:16:43.712Z,97643.89
2018-06-08T05:17:15.295Z,97635.38
2018-06-08T05:17:46.887Z,97637.93
2018-06-08T05:18:18.533Z,97630.34
2018-06-08T05:18:50.122Z,97638.79
2018-06-08T05:19:21.724Z,97635.81
2018-06-08T05:19:53.340Z,97631.55
2018-06-08T05:20:24.951Z,97634.97
2018-06-08T05:20:56.557Z,97637.14
2018-06-08T05:21:28.147Z,97632.88
2018-06-08T05:21:59.749Z,97638.00
2018-06-08T05:22:31.410Z,97631.61
2018-06-08T05:23:03.022Z,97636.31
2018-06-08T05:23:34.634Z,97636.73
2018-06-08T05:24:06.208Z,97633.33
2018-06-08T05:24:37.785Z,97638.45
2018-06-08T05:25:09.374Z,97633.34
2018-06-08T05:25:40.943Z,97632.93
2018-06-08T05:26:12.551Z,97629.51
2018-06-08T05:26:44.161Z,97632.48
2018-06-08T05:27:15.765Z,97635.95
2018-06-08T05:27:47.413Z,97632.54
2018-06-08T05:28:19.018Z,97629.58
2018-06-08T05:28:50.630Z,97630.42
2018-06-08T05:29:22.237Z,97631.28
2018-06-08T05:29:53.822Z,97633.42
2018-06-08T05:30:25.425Z,97627.88
2018-06-08T05:30:57.002Z,97632.64
2018-06-08T05:31:28.582Z,97632.16
2018-06-08T05:32:00.162Z,97630.02
2018-06-08T05:32:31.744Z,97632.16
2018-06-08T05:33:03.382Z,97633.44
2018-06-08T05:33:34.989Z,97624.52
2018-06-08T05:34:06.636Z,97630.87
2018-06-08T05:34:38.219Z,97633.48
2018-06-08T05:35:09.808Z,97633.48
2018-06-08T05:35:41.431Z,97629.22
2018-06-08T05:36:13.027Z,97630.92
2018-06-08T05:36:44.623Z,97627.52
2018-06-08T05:37:16.249Z,97632.22
2018-06-08T05:37:47.844Z,97626.23
2018-06-08T05:38:19.427Z,97627.09
2018-06-08T05:38:51.010Z,97628.38
2018-06-08T05:39:22.636Z,97628.40
2018-06-08T05:39:54.242Z,97626.70
2018-06-08T05:40:25.829Z,97626.26
2018-06-08T05:40:57.403Z,97626.26
2018-06-08T05:41:29.013Z,97622.86
2018-06-08T05:42:00.607Z,97629.25
2018-06-08T05:42:32.195Z,97624.58
2018-06-08T05:43:03.797Z,97629.27
2018-06-08T05:43:35.390Z,97627.97
2018-06-08T05:44:06.997Z,97625.85
2018-06-08T05:44:38.642Z,97628.83
2018-06-08T05:45:10.228Z,97633.11
2018-06-08T05:45:41.853Z,97632.72
2018-06-08T05:46:13.419Z,97625.91
2018-06-08T05:46:45.026Z,97628.88
2018-06-08T05:47:16.604Z,97629.73
2018-06-08T05:47:48.185Z,97631.45
2018-06-08T05:48:19.825Z,97628.46
2018-06-08T05:48:51.381Z,97621.64
2018-06-08T05:49:22.990Z,97626.78
2018-06-08T05:49:54.594Z,97633.16
2018-06-08T05:50:26.188Z,97635.28
2018-06-08T05:50:57.821Z,97631.88
2018-06-08T05:51:29.411Z,97630.59
2018-06-08T05:52:00.997Z,97626.84
2018-06-08T05:52:32.601Z,97630.18
2018-06-08T05:53:04.172Z,97627.62
2018-06-08T05:53:35.759Z,97626.34
2018-06-08T05:54:07.352Z,97633.16
2018-06-08T05:54:38.932Z,97628.90
2018-06-08T05:55:10.519Z,97632.31
2018-06-08T05:55:42.125Z,97626.78
2018-06-08T05:56:13.710Z,97629.78
2018-06-08T05:56:45.293Z,97627.62
2018-06-08T05:57:16.883Z,97631.88
2018-06-08T05:57:48.472Z,97630.61
2018-06-08T05:58:20.078Z,97631.04
2018-06-08T05:58:51.648Z,97628.08
2018-06-08T05:59:23.225Z,97631.05
2018-06-08T05:59:54.829Z,97630.63
2018-06-08T06:00:26.433Z,97628.06
2018-06-08T06:00:58.014Z,97629.35
2018-06-08T06:01:29.598Z,97628.92
2018-06-08T06:02:01.200Z,97633.61
2018-06-08T06:02:32.794Z,97634.89
2018-06-08T06:03:04.401Z,97637.87
2018-06-08T06:03:35.986Z,97631.05
2018-06-08T06:04:07.566Z,97634.47
2018-06-08T06:04:39.144Z,97640.43
2018-06-08T06:05:10.730Z,97640.01
2018-06-08T06:05:42.324Z,97642.15
2018-06-08T06:06:13.930Z,97645.56
2018-06-08T06:06:45.582Z,97637.87
2018-06-08T06:07:17.176Z,97638.31
2018-06-08T06:07:48.762Z,97638.31
2018-06-08T06:08:20.365Z,97639.17
2018-06-08T06:08:51.950Z,97637.87
2018-06-08T06:09:23.561Z,97642.15
2018-06-08T06:09:55.158Z,97643.01
2018-06-08T06:10:26.765Z,97643.01
2018-06-08T06:10:58.432Z,97638.36